Time;durP1;ratioP1;P1;durP2;ratioP2;P2;SDS_P1;SDS_P2;PMS_P1;PMS_P2;Temp;Humidity;BMP_temperature;BMP_pressure;BME280_temperature;BME280_humidity;BME280_pressure;Samples;Min_cycle;Max_cycle;Signal;HPM_P1;HPM_P2
2023/09/26 00:01:43;;;;;;;12.30;5.55;;;;;;;11.78;95.14;101146.22;5077773;28;20063;-37
2023/09/26 00:04:09;;;;;;;15.85;5.68;;;;;;;11.77;95.25;101149.75;5068215;28;20641;-36
2023/09/26 00:06:35;;;;;;;11.18;6.20;;;;;;;11.78;95.26;101145.38;5076066;28;20135;-36
2023/09/26 00:09:00;;;;;;;10.18;5.63;;;;;;;11.76;95.05;101158.44;5068770;28;20037;-36
2023/09/26 00:11:27;;;;;;;12.60;6.00;;;;;;;11.77;95.49;101159.31;5072085;28;20427;-36
2023/09/26 00:13:53;;;;;;;11.50;5.63;;;;;;;11.61;95.71;101126.53;5071931;28;20036;-36
2023/09/26 00:16:19;;;;;;;13.82;6.07;;;;;;;11.76;95.28;101161.06;5059783;28;20120;-36
2023/09/26 00:18:44;;;;;;;10.98;5.38;;;;;;;11.75;95.23;101163.66;5079749;28;20036;-35
2023/09/26 00:21:10;;;;;;;13.80;6.18;;;;;;;11.73;95.58;101157.59;5062218;28;20056;-35
2023/09/26 00:23:36;;;;;;;19.23;10.50;;;;;;;11.72;95.73;101163.69;5076764;28;20101;-36
2023/09/26 00:26:04;;;;;;;21.17;12.38;;;;;;;11.70;95.61;101168.06;5072321;28;20036;-36
2023/09/26 00:28:30;;;;;;;22.52;15.13;;;;;;;11.54;95.95;101143.97;5094208;28;20040;-36
2023/09/26 00:30:59;;;;;;;23.17;13.15;;;;;;;11.52;95.69;101147.47;5066835;28;20032;-36
2023/09/26 00:33:26;;;;;;;28.33;13.27;;;;;;;11.48;96.15;101147.53;5082963;28;20048;-38
2023/09/26 00:35:52;;;;;;;18.40;10.70;;;;;;;11.40;96.21;101125.97;5065259;28;20036;-36
2023/09/26 00:38:17;;;;;;;14.85;9.20;;;;;;;11.64;96.59;101170.75;5078002;28;20048;-37
2023/09/26 00:40:43;;;;;;;20.02;9.27;;;;;;;11.62;96.50;101175.16;5077735;28;20043;-36
2023/09/26 00:43:10;;;;;;;14.75;9.02;;;;;;;11.60;96.81;101164.72;5079872;28;20113;-36
2023/09/26 00:45:36;;;;;;;15.68;8.57;;;;;;;11.59;96.08;101169.97;5065320;28;20040;-35
2023/09/26 00:48:05;;;;;;;14.23;8.18;;;;;;;11.57;96.39;101169.09;5077242;28;20463;-37
2023/09/26 00:50:31;;;;;;;13.50;8.15;;;;;;;11.55;96.73;101174.38;5079257;28;20044;-36
2023/09/26 00:52:58;;;;;;;16.00;7.93;;;;;;;11.54;96.47;101166.56;5061975;28;20048;-36
2023/09/26 00:55:24;;;;;;;14.43;8.13;;;;;;;11.53;96.37;101164.84;5049658;28;20048;-36
2023/09/26 00:57:50;;;;;;;18.17;9.00;;;;;;;11.51;96.20;101157.06;5075778;28;20094;-36
2023/09/26 01:00:19;;;;;;;14.65;8.07;;;;;;;11.31;96.24;101128.69;5063842;28;20052;-37
2023/09/26 01:02:45;;;;;;;14.48;7.90;;;;;;;11.36;96.04;101139.03;5081883;28;20043;-37
2023/09/26 01:05:11;;;;;;;16.50;7.93;;;;;;;11.26;95.67;101138.31;5078765;28;20469;-37
2023/09/26 01:07:38;;;;;;;12.70;7.78;;;;;;;11.42;95.78;101164.97;5077874;28;20463;-36
2023/09/26 01:10:08;;;;;;;14.27;7.80;;;;;;;11.42;95.59;101168.47;5070334;28;20036;-36
2023/09/26 01:12:35;;;;;;;19.83;8.02;;;;;;;11.42;95.66;101175.41;5075488;28;20040;-36
2023/09/26 01:15:01;;;;;;;20.90;8.43;;;;;;;11.38;96.12;101163.31;5068178;28;20084;-37
2023/09/26 01:17:31;;;;;;;17.65;8.85;;;;;;;11.39;95.81;101173.72;5080635;28;20056;-36
2023/09/26 01:19:57;;;;;;;14.20;7.35;;;;;;;11.27;96.08;101152.19;5079218;28;20035;-36
2023/09/26 01:22:26;;;;;;;15.93;8.80;;;;;;;11.37;96.12;101178.06;5059701;28;20047;-36
2023/09/26 01:24:52;;;;;;;17.88;7.90;;;;;;;11.33;96.04;101167.72;5060623;28;20080;-36
2023/09/26 01:27:19;;;;;;;15.35;7.95;;;;;;;11.36;95.73;101172.88;5082117;28;20055;-35
2023/09/26 01:29:47;;;;;;;15.57;7.78;;;;;;;11.34;96.10;101162.50;5058881;28;20080;-35
2023/09/26 01:32:13;;;;;;;15.45;7.90;;;;;;;11.32;95.70;101161.66;5079015;28;20057;-36
2023/09/26 01:34:39;;;;;;;16.95;8.80;;;;;;;11.34;96.16;101172.06;5055762;28;20860;-35
2023/09/26 01:37:07;;;;;;;16.45;7.75;;;;;;;11.32;96.46;101171.19;5077536;28;20170;-37
2023/09/26 01:39:32;;;;;;;17.05;8.38;;;;;;;11.19;96.28;101144.50;5064390;28;20036;-37
2023/09/26 01:41:59;;;;;;;18.95;9.25;;;;;;;11.31;96.57;101159.94;5078314;28;20427;-36
2023/09/26 01:44:24;;;;;;;20.67;10.23;;;;;;;11.29;96.59;101153.03;5070310;28;20035;-38
2023/09/26 01:46:50;;;;;;;20.30;10.40;;;;;;;11.30;96.50;101157.38;5057986;28;20036;-37
2023/09/26 01:49:16;;;;;;;19.20;10.50;;;;;;;11.28;96.69;101162.59;5079482;28;20202;-37
2023/09/26 01:51:42;;;;;;;18.90;10.25;;;;;;;11.26;96.38;101150.47;5077506;28;20135;-37
2023/09/26 01:54:08;;;;;;;19.15;10.75;;;;;;;11.25;96.54;101156.56;5071478;28;20051;-36
2023/09/26 01:56:34;;;;;;;19.98;10.45;;;;;;;11.23;95.82;101150.50;5080229;28;20081;-36
2023/09/26 01:59:00;;;;;;;18.13;9.43;;;;;;;11.19;96.60;101144.50;5079342;28;20402;-37
2023/09/26 02:01:26;;;;;;;19.08;9.98;;;;;;;11.19;96.52;101167.06;5077155;28;20480;-37
2023/09/26 02:03:52;;;;;;;16.23;10.13;;;;;;;11.17;95.97;101164.47;5071762;28;20054;-37
2023/09/26 02:06:21;;;;;;;18.27;10.10;;;;;;;11.16;96.47;101165.34;5069650;28;20044;-37
2023/09/26 02:08:47;;;;;;;17.33;9.80;;;;;;;10.82;96.17;101112.00;5080297;28;20435;-36
2023/09/26 02:11:13;;;;;;;19.08;10.00;;;;;;;11.12;96.04;101171.47;5071533;28;20036;-37
2023/09/26 02:13:38;;;;;;;21.02;10.75;;;;;;;11.04;96.23;101162.91;5062818;28;20046;-36
2023/09/26 02:16:12;;;;;;;21.00;11.48;;;;;;;10.97;96.17;101151.72;5068457;28;20727;-36
2023/09/26 02:18:39;;;;;;;19.33;9.98;;;;;;;11.10;96.72;101172.34;5076038;28;20516;-36
2023/09/26 02:21:05;;;;;;;19.65;9.90;;;;;;;11.10;96.09;101175.81;5060553;28;20439;-36
2023/09/26 02:23:32;;;;;;;16.98;9.60;;;;;;;11.04;96.43;101168.13;5057437;28;20102;-36
2023/09/26 02:25:57;;;;;;;17.55;9.10;;;;;;;11.10;97.07;101174.97;5071634;28;20044;-35
2023/09/26 02:28:23;;;;;;;18.40;10.77;;;;;;;11.09;96.95;101171.53;5076168;28;20035;-37
2023/09/26 02:30:49;;;;;;;18.15;9.93;;;;;;;10.92;96.36;101158.72;5081334;28;20397;-35
2023/09/26 02:33:15;;;;;;;17.13;9.50;;;;;;;10.88;97.01;101148.38;5078931;28;20067;-36
2023/09/26 02:35:41;;;;;;;13.65;8.38;;;;;;;11.05;96.81;101180.22;5074687;28;20051;-36
2023/09/26 02:38:08;;;;;;;17.17;9.88;;;;;;;11.03;96.73;101177.66;5076574;28;20040;-37
2023/09/26 02:40:34;;;;;;;20.63;10.05;;;;;;;11.04;97.02;101178.53;5080384;28;20039;-35
2023/09/26 02:43:00;;;;;;;15.30;9.07;;;;;;;11.02;96.86;101172.47;5085945;28;20079;-36
2023/09/26 02:45:28;;;;;;;17.90;9.65;;;;;;;11.04;96.86;101171.56;5069241;28;20522;-37
2023/09/26 02:47:54;;;;;;;18.30;9.93;;;;;;;11.04;97.16;101178.53;5072341;28;20046;-35
2023/09/26 02:50:21;;;;;;;22.02;10.07;;;;;;;10.96;97.09;101163.00;5080198;28;20123;-36
2023/09/26 02:52:47;;;;;;;17.75;9.73;;;;;;;11.02;97.62;101175.94;5079482;28;20045;-36
2023/09/26 02:55:12;;;;;;;19.90;8.82;;;;;;;10.84;97.16;101150.13;5076995;28;20518;-36
2023/09/26 02:57:39;;;;;;;18.88;9.20;;;;;;;10.99;96.99;101183.75;5057514;28;20036;-37
2023/09/26 03:00:12;;;;;;;23.27;9.35;;;;;;;10.97;97.80;101182.94;5074310;28;20051;-36
2023/09/26 03:02:38;;;;;;;14.60;8.57;;;;;;;10.97;97.82;101190.75;5068447;28;20515;-36
2023/09/26 03:05:05;;;;;;;18.02;8.93;;;;;;;10.94;97.32;101195.09;5076483;28;20070;-36
2023/09/26 03:07:31;;;;;;;20.80;9.30;;;;;;;10.92;97.51;101189.94;5080117;28;20049;-37
2023/09/26 03:09:57;;;;;;;17.85;8.73;;;;;;;10.90;97.90;101191.69;5075658;28;20047;-37
2023/09/26 03:12:22;;;;;;;19.95;9.77;;;;;;;10.90;97.32;101196.03;5051604;28;20075;-37
2023/09/26 03:14:48;;;;;;;25.40;9.75;;;;;;;10.91;97.22;101188.22;5078274;28;20044;-36
2023/09/26 03:17:14;;;;;;;15.60;8.82;;;;;;;10.91;97.59;101197.75;5058208;28;20111;-36
2023/09/26 03:19:40;;;;;;;18.65;9.60;;;;;;;10.90;97.32;101193.44;5067087;28;20471;-36
2023/09/26 03:22:06;;;;;;;20.35;8.60;;;;;;;10.88;97.10;101187.41;5069223;28;20127;-36
2023/09/26 03:24:32;;;;;;;16.52;8.50;;;;;;;10.89;97.07;101192.56;5067645;28;20051;-36
2023/09/26 03:26:58;;;;;;;17.65;8.88;;;;;;;10.89;97.51;101192.56;5061235;28;20044;-37
2023/09/26 03:29:24;;;;;;;18.67;8.57;;;;;;;10.87;97.03;101193.47;5051548;28;20048;-38
2023/09/26 03:31:50;;;;;;;17.58;9.63;;;;;;;10.89;97.19;101202.97;5049589;28;20512;-42
2023/09/26 03:34:16;;;;;;;22.02;9.55;;;;;;;10.72;96.92;101171.09;5067843;28;20048;-36
2023/09/26 03:36:42;;;;;;;17.80;9.35;;;;;;;10.92;97.61;101205.56;5062890;28;20063;-37
2023/09/26 03:39:09;;;;;;;17.02;9.43;;;;;;;10.93;97.49;101212.50;5069815;28;20055;-37
2023/09/26 03:41:35;;;;;;;18.35;9.88;;;;;;;10.96;97.02;101216.78;5077784;28;20855;-36
2023/09/26 03:44:01;;;;;;;19.85;10.25;;;;;;;10.98;97.06;101210.69;5071447;28;20040;-36
2023/09/26 03:46:26;;;;;;;19.42;10.95;;;;;;;11.02;96.58;101214.97;5070724;28;20043;-36
2023/09/26 03:48:52;;;;;;;20.30;10.40;;;;;;;11.07;96.40;101209.72;5071267;28;20048;-37
2023/09/26 03:51:18;;;;;;;18.38;9.63;;;;;;;11.13;96.75;101209.66;5078468;28;20094;-37
2023/09/26 03:53:44;;;;;;;18.08;10.00;;;;;;;11.20;96.67;101220.84;5070536;28;20044;-36
2023/09/26 03:56:10;;;;;;;18.65;9.60;;;;;;;11.24;96.28;101215.59;5072222;28;20470;-36
2023/09/26 03:58:37;;;;;;;20.38;10.05;;;;;;;11.26;96.29;101206.00;5069187;28;20040;-43
2023/09/26 04:01:11;;;;;;;17.20;9.82;;;;;;;11.31;96.11;101217.22;5077164;28;20048;-36
2023/09/26 04:03:37;;;;;;;19.00;9.45;;;;;;;11.29;95.64;101211.19;5074214;28;20040;-38
2023/09/26 04:06:03;;;;;;;18.75;9.40;;;;;;;11.36;94.94;101215.41;5077600;28;20039;-46
2023/09/26 04:08:29;;;;;;;15.75;9.45;;;;;;;11.43;94.95;101214.47;5073271;28;20102;-38
2023/09/26 04:10:55;;;;;;;18.20;9.65;;;;;;;11.47;95.19;101215.28;5074974;28;20040;-38
2023/09/26 04:13:21;;;;;;;16.30;8.80;;;;;;;11.55;94.41;101223.84;5066190;28;20131;-36
2023/09/26 04:15:47;;;;;;;16.70;9.93;;;;;;;11.41;94.38;101184.97;5074869;28;20455;-37
2023/09/26 04:18:13;;;;;;;24.00;10.38;;;;;;;11.62;94.31;101220.25;5076426;28;20094;-37
2023/09/26 04:20:40;;;;;;;17.70;9.40;;;;;;;11.65;94.33;101225.44;5070274;28;20051;-37
2023/09/26 04:23:05;;;;;;;17.95;8.85;;;;;;;11.51;94.55;101195.28;5072856;28;20101;-37
2023/09/26 04:25:34;;;;;;;14.20;8.55;;;;;;;11.71;94.65;101230.56;5079599;28;20043;-37
2023/09/26 04:28:00;;;;;;;22.50;8.82;;;;;;;11.76;94.12;101225.34;5067280;28;20396;-36
2023/09/26 04:30:26;;;;;;;17.98;8.10;;;;;;;11.79;93.79;101227.88;5073601;28;20471;-37
2023/09/26 04:32:52;;;;;;;17.05;9.30;;;;;;;11.51;93.66;101180.50;5075850;28;20032;-37
2023/09/26 04:35:18;;;;;;;16.42;8.98;;;;;;;11.89;94.00;101243.34;5077352;28;20056;-36
2023/09/26 04:37:44;;;;;;;19.05;8.30;;;;;;;11.91;93.70;101234.66;5071155;28;20790;-35
2023/09/26 04:40:11;;;;;;;15.48;8.50;;;;;;;12.07;93.56;101247.44;5077356;28;20047;-37
2023/09/26 04:42:45;;;;;;;15.43;8.45;;;;;;;11.94;93.34;101213.75;5071387;28;20102;-36
2023/09/26 04:45:11;;;;;;;14.48;8.63;;;;;;;12.16;93.27;101246.44;5073303;28;20036;-36
2023/09/26 04:47:36;;;;;;;16.50;7.65;;;;;;;12.21;92.69;101250.69;5073771;28;20062;-35
2023/09/26 04:50:03;;;;;;;16.42;7.72;;;;;;;12.27;92.63;101250.59;5072832;28;20052;-37
2023/09/26 04:52:31;;;;;;;18.65;8.05;;;;;;;12.36;92.37;101248.69;5079615;28;20097;-37
2023/09/26 04:54:58;;;;;;;15.50;7.90;;;;;;;12.46;92.04;101250.28;5079505;28;20566;-36
2023/09/26 04:57:24;;;;;;;20.02;7.78;;;;;;;12.56;91.99;101249.25;5076365;28;20044;-36
2023/09/26 04:59:50;;;;;;;13.88;7.70;;;;;;;12.64;91.33;101239.53;5069560;28;20052;-37
2023/09/26 05:02:16;;;;;;;20.58;9.38;;;;;;;12.74;90.88;101244.56;5074021;28;20063;-37
2023/09/26 05:04:42;;;;;;;19.52;8.40;;;;;;;12.85;90.41;101252.19;5077519;28;20046;-36
2023/09/26 05:07:09;;;;;;;14.10;7.72;;;;;;;12.90;89.94;101239.91;5077972;28;20089;-37
2023/09/26 05:09:37;;;;;;;12.98;7.18;;;;;;;13.03;89.61;101240.53;5068746;28;20043;-37
2023/09/26 05:12:03;;;;;;;13.70;8.13;;;;;;;13.10;89.26;101247.34;5073801;28;20187;-36
2023/09/26 05:14:30;;;;;;;18.80;10.13;;;;;;;13.20;89.13;101255.88;5061650;28;20042;-37
2023/09/26 05:16:56;;;;;;;17.88;9.32;;;;;;;13.26;88.62;101245.31;5075443;28;20052;-37
2023/09/26 05:19:22;;;;;;;22.30;8.35;;;;;;;13.44;88.07;101252.78;5078529;28;20039;-37
2023/09/26 05:21:47;;;;;;;18.75;8.10;;;;;;;13.61;87.27;101255.88;5056635;28;20071;-37
2023/09/26 05:24:13;;;;;;;19.50;8.32;;;;;;;13.78;86.48;101259.00;5080797;28;20089;-37
2023/09/26 05:26:40;;;;;;;14.25;8.15;;;;;;;13.95;85.86;101258.63;5081075;28;20035;-36
2023/09/26 05:29:05;;;;;;;12.02;7.10;;;;;;;14.12;85.10;101255.63;5074903;28;20131;-36
2023/09/26 05:31:32;;;;;;;17.40;7.20;;;;;;;14.32;84.24;101251.63;5085074;28;20131;-37
2023/09/26 05:33:58;;;;;;;11.57;6.50;;;;;;;14.60;82.86;101264.88;5078021;28;20103;-36
2023/09/26 05:36:25;;;;;;;14.23;7.22;;;;;;;14.81;81.02;101238.16;5056756;28;20944;-37
2023/09/26 05:38:50;;;;;;;13.80;7.07;;;;;;;15.41;79.20;101260.06;5069020;28;20045;-37
2023/09/26 05:41:17;;;;;;;19.60;7.63;;;;;;;15.91;77.07;101259.44;5077804;28;20097;-37
2023/09/26 05:43:44;;;;;;;14.10;6.60;;;;;;;16.45;74.73;101259.41;5074458;28;20033;-36
2023/09/26 05:46:09;;;;;;;14.77;6.55;;;;;;;17.00;72.42;101260.19;5076563;28;20139;-38
2023/09/26 05:48:36;;;;;;;13.93;6.10;;;;;;;17.72;69.99;101259.25;5082426;28;20526;-37
2023/09/26 05:51:05;;;;;;;13.35;6.03;;;;;;;18.51;67.60;101258.69;5065703;28;20044;-36
2023/09/26 05:53:31;;;;;;;17.30;6.85;;;;;;;19.41;64.90;101258.25;5074227;28;20041;-36
2023/09/26 05:55:58;;;;;;;11.07;6.93;;;;;;;20.30;61.86;101249.63;5078792;28;20064;-37
2023/09/26 05:58:24;;;;;;;9.18;5.82;;;;;;;21.00;59.55;101244.22;5081790;28;20124;-38
2023/09/26 06:00:51;;;;;;;10.55;6.90;;;;;;;21.70;57.19;101250.19;5073889;28;20086;-36
2023/09/26 06:03:17;;;;;;;12.93;5.82;;;;;;;22.27;54.56;101254.88;5070064;28;20040;-36
2023/09/26 06:05:43;;;;;;;14.32;5.88;;;;;;;22.79;52.42;101257.13;5072372;28;20036;-36
2023/09/26 06:08:09;;;;;;;9.23;6.72;;;;;;;23.53;50.08;101259.66;5076655;28;20103;-37
2023/09/26 06:10:35;;;;;;;11.90;6.22;;;;;;;24.20;47.95;101263.28;5074047;28;20486;-37
2023/09/26 06:13:01;;;;;;;8.95;6.82;;;;;;;24.76;46.67;101256.81;5081761;28;20480;-38
2023/09/26 06:15:27;;;;;;;10.43;5.93;;;;;;;25.15;44.71;101258.56;5064851;28;20071;-36
2023/09/26 06:18:00;;;;;;;9.52;5.88;;;;;;;25.71;43.08;101263.41;5077356;28;20500;-36
2023/09/26 06:20:27;;;;;;;8.30;5.90;;;;;;;26.30;41.95;101258.19;5080444;28;20063;-37
2023/09/26 06:22:54;;;;;;;11.98;6.22;;;;;;;26.82;40.30;101263.09;5063562;28;20083;-37
2023/09/26 06:25:22;;;;;;;8.50;5.88;;;;;;;27.46;39.37;101257.22;5067586;28;20145;-37
2023/09/26 06:27:49;;;;;;;9.65;6.28;;;;;;;27.95;38.20;101254.13;5064949;28;20039;-38
2023/09/26 06:30:15;;;;;;;10.32;5.90;;;;;;;28.29;37.20;101255.72;5071255;28;20047;-37
2023/09/26 06:32:41;;;;;;;10.00;6.30;;;;;;;28.65;36.58;101255.31;5059857;28;20527;-38
2023/09/26 06:35:08;;;;;;;9.07;6.68;;;;;;;29.30;35.42;101251.47;5078265;28;20424;-37
2023/09/26 06:37:34;;;;;;;10.98;6.22;;;;;;;29.76;34.32;101250.06;5085540;28;20491;-38
2023/09/26 06:40:04;;;;;;;8.93;5.75;;;;;;;29.84;33.97;101251.06;5052115;28;20098;-38
2023/09/26 06:42:32;;;;;;;10.65;6.20;;;;;;;29.16;34.29;101253.63;5040295;28;20055;-39
2023/09/26 06:44:58;;;;;;;12.50;6.93;;;;;;;28.65;34.34;101217.81;5049524;28;20069;-37
2023/09/26 06:47:25;;;;;;;11.95;6.90;;;;;;;28.78;34.05;101249.78;5085068;28;20032;-38
2023/09/26 06:49:55;;;;;;;11.13;6.43;;;;;;;29.25;33.86;101252.84;5070995;28;20479;-37
2023/09/26 06:52:22;;;;;;;11.90;7.25;;;;;;;29.59;33.32;101243.53;5067788;28;20044;-37
2023/09/26 06:54:50;;;;;;;;;;;;;;;30.30;32.82;101245.06;5057211;28;20528;-38
2023/09/26 06:57:20;;;;;;;13.27;6.45;;;;;;;30.87;32.24;101245.16;5061920;28;20303;-37
2023/09/26 06:59:50;;;;;;;13.50;6.53;;;;;;;31.35;31.00;101247.72;5074109;28;20098;-38
2023/09/26 07:02:17;;;;;;;16.40;8.30;;;;;;;31.76;30.53;101220.34;5070813;28;20093;-36
2023/09/26 07:04:44;;;;;;;11.35;7.65;;;;;;;32.17;29.78;101235.06;5069286;28;20498;-39
2023/09/26 07:07:10;;;;;;;9.65;7.68;;;;;;;32.53;29.04;101245.78;5067074;28;20542;-37
2023/09/26 07:09:38;;;;;;;11.43;7.30;;;;;;;32.09;29.19;101245.69;5070896;28;20036;-37
2023/09/26 07:12:05;;;;;;;;;;;;;;;31.23;30.33;101244.38;5081014;28;20043;-37
2023/09/26 07:14:32;;;;;;;8.18;4.22;;;;;;;30.15;30.26;101224.16;5073707;28;19915;-38
2023/09/26 07:16:58;;;;;;;4.55;2.50;;;;;;;30.46;30.05;101238.28;5073340;28;20037;-38
2023/09/26 07:19:31;;;;;;;3.80;2.58;;;;;;;30.73;29.32;101243.78;5079106;28;20055;-39
2023/09/26 07:21:56;;;;;;;9.30;4.40;;;;;;;31.09;29.40;101234.94;5077180;28;20072;-37
2023/09/26 07:24:23;;;;;;;12.05;4.80;;;;;;;30.92;29.95;101237.53;5079790;28;20086;-37
2023/09/26 07:26:50;;;;;;;10.27;5.78;;;;;;;30.48;30.12;101229.13;5077644;28;20504;-36
2023/09/26 07:29:16;;;;;;;8.83;6.53;;;;;;;30.07;30.37;101232.06;5073799;28;20090;-38
2023/09/26 07:31:42;;;;;;;8.63;5.60;;;;;;;30.78;29.91;101232.59;5063300;28;20299;-37
2023/09/26 07:34:09;;;;;;;11.43;6.32;;;;;;;31.08;28.81;101235.09;5069678;28;20047;-39
2023/09/26 07:36:35;;;;;;;9.27;6.80;;;;;;;31.16;28.75;101237.88;5063815;28;20047;-38
2023/09/26 07:39:01;;;;;;;12.82;6.93;;;;;;;31.47;28.62;101238.44;5068438;28;20512;-37
2023/09/26 07:41:27;;;;;;;12.18;6.38;;;;;;;31.62;28.58;101222.66;5076722;28;20044;-38
2023/09/26 07:43:52;;;;;;;21.20;11.38;;;;;;;31.80;28.05;101229.78;5072111;28;20487;-39
2023/09/26 07:46:19;;;;;;;10.02;6.32;;;;;;;32.05;27.90;101227.31;5068245;28;20040;-38
2023/09/26 07:48:45;;;;;;;9.85;6.30;;;;;;;32.04;27.27;101231.84;5068571;28;20036;-38
2023/09/26 07:51:11;;;;;;;12.20;6.75;;;;;;;32.07;27.13;101218.13;5067940;28;20094;-37
2023/09/26 07:53:38;;;;;;;8.73;6.22;;;;;;;32.04;27.04;101210.31;5050437;28;20044;-37
2023/09/26 07:56:04;;;;;;;11.43;6.72;;;;;;;32.27;27.05;101222.34;5068440;28;20086;-37
2023/09/26 07:58:30;;;;;;;12.70;7.10;;;;;;;32.32;26.98;101227.28;5069143;28;20044;-37
2023/09/26 08:00:58;;;;;;;12.25;6.95;;;;;;;32.04;27.25;101190.63;5043655;28;20048;-39
2023/09/26 08:03:25;;;;;;;12.57;6.40;;;;;;;31.98;27.99;101217.16;5062192;28;20067;-37
2023/09/26 08:05:58;;;;;;;10.45;6.63;;;;;;;31.66;27.84;101198.03;5064038;28;20040;-37
2023/09/26 08:08:24;;;;;;;15.82;7.72;;;;;;;31.52;27.99;101215.47;5068635;28;20314;-38
2023/09/26 08:10:50;;;;;;;10.52;6.97;;;;;;;31.24;28.41;101199.53;5070794;28;20044;-38
2023/09/26 08:13:16;;;;;;;10.55;7.43;;;;;;;31.38;28.25;101221.38;5068545;28;20039;-37
2023/09/26 08:15:42;;;;;;;15.43;7.18;;;;;;;31.96;27.58;101216.50;5067124;28;20025;-38
2023/09/26 08:18:08;;;;;;;11.00;7.43;;;;;;;31.56;27.61;101214.19;5076742;28;20075;-38
2023/09/26 08:20:34;;;;;;;14.48;7.22;;;;;;;30.25;29.26;101211.63;5075437;28;20048;-38
2023/09/26 08:23:00;;;;;;;10.55;6.60;;;;;;;29.12;31.10;101206.66;5065193;28;20151;-37
2023/09/26 08:25:26;;;;;;;10.70;6.72;;;;;;;28.05;32.64;101214.94;5059282;28;20530;-36
2023/09/26 08:27:52;;;;;;;11.48;6.97;;;;;;;27.28;33.89;101195.41;5070285;28;20615;-37
2023/09/26 08:30:18;;;;;;;9.77;6.22;;;;;;;28.16;32.90;101213.09;5072437;28;20044;-37
2023/09/26 08:32:44;;;;;;;14.27;6.60;;;;;;;28.06;32.98;101212.13;5070940;28;20044;-39
2023/09/26 08:35:10;;;;;;;15.57;6.72;;;;;;;27.37;33.68;101210.72;5078861;28;20047;-37
2023/09/26 08:37:40;;;;;;;11.82;5.90;;;;;;;27.58;33.54;101202.81;5075000;28;20060;-37
2023/09/26 08:40:11;;;;;;;7.57;4.80;;;;;;;29.20;31.37;101199.69;5076446;28;20053;-37
2023/09/26 08:42:40;;;;;;;7.80;4.47;;;;;;;30.84;29.66;101205.16;5072186;28;20045;-37
2023/09/26 08:45:06;;;;;;;11.75;5.45;;;;;;;30.44;29.54;101202.69;5071487;28;20045;-38
2023/09/26 08:47:35;;;;;;;6.57;4.68;;;;;;;29.56;30.61;101192.03;5079959;28;20077;-39
2023/09/26 08:50:01;;;;;;;6.50;3.97;;;;;;;30.39;29.78;101197.75;5078392;28;20051;-37
2023/09/26 08:52:29;;;;;;;8.57;5.38;;;;;;;31.82;28.39;101194.66;5079627;28;20043;-37
2023/09/26 08:54:55;;;;;;;8.70;4.43;;;;;;;32.77;27.13;101198.34;5076078;28;20031;-38
2023/09/26 08:57:22;;;;;;;6.38;4.00;;;;;;;33.57;25.86;101188.94;5073502;28;20074;-38
2023/09/26 08:59:49;;;;;;;6.97;3.38;;;;;;;34.29;24.91;101187.38;5079846;28;20048;-37
2023/09/26 09:02:15;;;;;;;7.93;3.83;;;;;;;34.92;24.19;101199.25;5087278;28;20147;-36
2023/09/26 09:04:45;;;;;;;8.07;4.32;;;;;;;35.31;23.91;101186.66;5078584;28;20078;-37
2023/09/26 09:07:14;;;;;;;8.40;4.10;;;;;;;35.73;23.33;101188.97;5078645;28;20056;-36
2023/09/26 09:10:11;;;;;;;7.15;4.18;;;;;;;35.93;22.61;101187.47;5073646;28;20044;-38
2023/09/26 09:12:38;;;;;;;7.25;4.90;;;;;;;34.82;22.69;101188.66;5064547;28;20044;-37
2023/09/26 09:15:18;;;;;;;8.45;4.50;;;;;;;33.55;24.38;101177.44;5071232;28;20126;-38
2023/09/26 09:17:46;;;;;;;5.78;4.53;;;;;;;32.93;25.10;101143.69;5061965;28;20152;-38
2023/09/26 09:20:16;;;;;;;11.30;4.63;;;;;;;32.33;25.27;101170.59;5060373;28;20045;-40
2023/09/26 09:22:46;;;;;;;5.75;3.60;;;;;;;31.60;25.86;101155.59;5066994;28;20037;-38
2023/09/26 09:25:12;;;;;;;5.97;4.15;;;;;;;31.28;25.85;101169.50;5074323;28;20047;-36
2023/09/26 09:27:40;;;;;;;8.65;4.55;;;;;;;30.80;26.65;101174.22;5072270;28;20470;-38
2023/09/26 09:30:11;;;;;;;6.00;4.07;;;;;;;30.48;26.88;101174.56;5077959;28;20041;-36
2023/09/26 09:32:42;;;;;;;5.88;4.00;;;;;;;31.08;26.54;101166.06;5075811;28;20093;-36
2023/09/26 09:35:13;;;;;;;7.05;4.88;;;;;;;31.80;26.09;101164.38;5087577;28;20052;-36
2023/09/26 09:37:43;;;;;;;9.32;4.68;;;;;;;32.17;25.79;101170.44;5073979;28;20549;-37
2023/09/26 09:40:09;;;;;;;6.35;4.07;;;;;;;31.95;26.46;101173.59;5065937;28;20052;-37
2023/09/26 09:42:36;;;;;;;7.00;3.80;;;;;;;31.68;26.35;101160.22;5081630;28;20048;-37
2023/09/26 09:45:04;;;;;;;8.07;4.40;;;;;;;31.38;26.23;101148.78;5057672;28;20509;-36
2023/09/26 09:47:34;;;;;;;6.85;4.13;;;;;;;30.32;27.15;101150.97;5052098;28;20053;-37
2023/09/26 09:50:01;;;;;;;12.80;4.38;;;;;;;29.66;28.28;101155.38;5079073;28;20527;-37
2023/09/26 09:52:33;;;;;;;13.77;3.95;;;;;;;28.79;28.75;101138.16;5080272;28;20498;-37
2023/09/26 09:55:05;;;;;;;9.20;4.65;;;;;;;28.06;30.44;101139.06;5071134;28;20055;-37
2023/09/26 09:57:33;;;;;;;10.00;4.63;;;;;;;27.56;31.11;101145.97;5074959;28;20178;-36
2023/09/26 09:59:59;;;;;;;9.05;5.00;;;;;;;27.54;31.67;101164.78;5068612;28;20028;-37
2023/09/26 10:02:25;;;;;;;7.75;3.80;;;;;;;29.31;29.00;101156.69;5073421;28;20034;-36
2023/09/26 10:04:55;;;;;;;9.27;3.78;;;;;;;30.73;27.15;101160.50;5059952;28;20041;-36
2023/09/26 10:07:24;;;;;;;14.15;8.05;;;;;;;32.33;25.85;101158.97;5070015;28;20055;-38
2023/09/26 10:09:49;;;;;;;;;;;;;;;33.51;24.85;101161.75;5053501;28;20044;-40
2023/09/26 10:12:15;;;;;;;9.93;4.60;;;;;;;32.37;25.84;101146.88;5073113;28;20633;-37
2023/09/26 10:14:41;;;;;;;7.07;4.72;;;;;;;32.60;25.58;101150.75;5054480;28;20047;-36
2023/09/26 10:17:07;;;;;;;7.68;3.60;;;;;;;34.29;24.09;101157.66;5057607;28;20428;-38
2023/09/26 10:19:34;;;;;;;7.15;3.58;;;;;;;35.68;22.75;101137.25;5057978;28;20037;-36
2023/09/26 10:22:19;;;;;;;6.32;3.50;;;;;;;37.04;21.24;101127.94;5057446;28;20048;-37
2023/09/26 10:24:47;;;;;;;6.22;3.97;;;;;;;37.91;20.50;101152.31;5061013;28;20049;-37
2023/09/26 10:27:22;;;;;;;11.35;4.47;;;;;;;38.43;20.17;101149.19;5062950;28;20089;-39
2023/09/26 10:29:51;;;;;;;8.57;4.07;;;;;;;38.76;19.55;101117.66;5069301;28;20044;-40
2023/09/26 10:32:32;;;;;;;8.57;3.75;;;;;;;38.27;19.72;101149.50;5076020;28;20163;-40
2023/09/26 10:34:58;;;;;;;8.27;3.53;;;;;;;37.57;20.10;101125.88;5057102;28;20146;-37
2023/09/26 10:37:27;;;;;;;5.68;3.58;;;;;;;37.66;19.75;101144.56;5077786;28;20132;-41
2023/09/26 10:39:54;;;;;;;5.78;3.35;;;;;;;38.05;18.94;101118.84;5063215;28;20040;-40
2023/09/26 10:42:24;;;;;;;5.85;3.20;;;;;;;38.67;18.44;101132.47;5058065;28;20072;-39
2023/09/26 10:44:51;;;;;;;7.13;3.03;;;;;;;38.70;18.60;101117.59;5055280;28;20040;-39
2023/09/26 10:47:18;;;;;;;4.97;3.30;;;;;;;37.09;19.80;101125.53;5067673;28;20507;-39
2023/09/26 10:49:44;;;;;;;9.20;3.00;;;;;;;34.89;21.70;101121.22;5064462;28;20041;-41
2023/09/26 10:52:11;;;;;;;4.75;2.63;;;;;;;33.43;23.07;101119.44;5059892;28;20537;-40
2023/09/26 10:54:37;;;;;;;6.87;2.97;;;;;;;32.34;24.17;101104.13;5056650;28;20048;-37
2023/09/26 10:57:04;;;;;;;6.85;3.75;;;;;;;32.83;24.32;101112.47;5072122;28;20060;-36
2023/09/26 10:59:30;;;;;;;7.47;4.10;;;;;;;34.43;22.86;101102.97;5050672;28;20076;-37
2023/09/26 11:01:58;;;;;;;8.40;3.88;;;;;;;35.81;21.10;101101.44;5070000;28;20477;-39
2023/09/26 11:04:27;;;;;;;4.90;3.53;;;;;;;37.01;20.57;101103.88;5057681;28;20135;-38
2023/09/26 11:06:53;;;;;;;6.65;3.55;;;;;;;38.02;19.64;101103.75;5049100;28;20303;-40
2023/09/26 11:09:19;;;;;;;5.13;3.92;;;;;;;38.46;19.13;101091.75;5035428;28;20485;-40
2023/09/26 11:11:45;;;;;;;9.20;3.78;;;;;;;38.81;18.68;101082.53;5060451;28;20033;-37
2023/09/26 11:14:11;;;;;;;8.13;3.80;;;;;;;39.37;18.45;101098.66;5054897;28;20120;-36
2023/09/26 11:16:37;;;;;;;9.73;3.90;;;;;;;39.79;18.20;101100.19;5054468;28;20029;-38
2023/09/26 11:19:02;;;;;;;10.35;3.60;;;;;;;39.69;18.00;101086.97;5056483;28;20044;-38